sensor_id;sensor_type;location;lat;lon;timestamp;pressure;altitude;pressure_sealevel;temperature;humidity
43621;BME280;29213;50.770;7.298;2023-04-07T00:01:41;100603.59;;;6.37;64.21
43621;BME280;29213;50.770;7.298;2023-04-07T00:04:07;100348.56;;;4.78;64.00
43621;BME280;29213;50.770;7.298;2023-04-07T00:06:32;100647.53;;;6.69;63.64
43621;BME280;29213;50.770;7.298;2023-04-07T00:08:57;100648.94;;;6.73;63.96
43621;BME280;29213;50.770;7.298;2023-04-07T00:11:23;100557.16;;;6.13;64.21
43621;BME280;29213;50.770;7.298;2023-04-07T00:13:48;100680.44;;;6.86;64.55
43621;BME280;29213;50.770;7.298;2023-04-07T00:16:14;100697.31;;;6.95;64.22
43621;BME280;29213;50.770;7.298;2023-04-07T00:18:39;100380.16;;;5.00;64.31
43621;BME280;29213;50.770;7.298;2023-04-07T00:21:04;100659.13;;;6.78;64.47
43621;BME280;29213;50.770;7.298;2023-04-07T00:23:30;100658.16;;;6.79;64.34
43621;BME280;29213;50.770;7.298;2023-04-07T00:25:56;100688.81;;;7.01;64.45
43621;BME280;29213;50.770;7.298;2023-04-07T00:28:21;100448.50;;;5.55;64.37
43621;BME280;29213;50.770;7.298;2023-04-07T00:30:47;100699.28;;;7.13;64.11
43621;BME280;29213;50.770;7.298;2023-04-07T00:33:12;100594.25;;;6.42;64.18
43621;BME280;29213;50.770;7.298;2023-04-07T00:35:37;100612.72;;;6.74;64.27
43621;BME280;29213;50.770;7.298;2023-04-07T00:38:03;100618.56;;;6.77;63.73
43621;BME280;29213;50.770;7.298;2023-04-07T00:40:28;100200.16;;;4.24;63.79
43621;BME280;29213;50.770;7.298;2023-04-07T00:42:53;100639.34;;;6.92;64.04
43621;BME280;29213;50.770;7.298;2023-04-07T00:45:19;100585.53;;;6.62;63.73
43621;BME280;29213;50.770;7.298;2023-04-07T00:47:44;100638.09;;;6.96;63.67
43621;BME280;29213;50.770;7.298;2023-04-07T00:50:10;100632.22;;;6.92;63.77
43621;BME280;29213;50.770;7.298;2023-04-07T00:52:36;100588.34;;;6.70;63.72
43621;BME280;29213;50.770;7.298;2023-04-07T00:55:01;100564.50;;;6.50;63.96
43621;BME280;29213;50.770;7.298;2023-04-07T00:57:27;100448.38;;;5.67;63.77
43621;BME280;29213;50.770;7.298;2023-04-07T00:59:53;100590.00;;;6.71;63.67
43621;BME280;29213;50.770;7.298;2023-04-07T01:02:40;100367.78;;;5.31;64.05
43621;BME280;29213;50.770;7.298;2023-04-07T01:05:38;100673.38;;;7.26;64.21
43621;BME280;29213;50.770;7.298;2023-04-07T01:08:07;100670.44;;;7.29;64.14
43621;BME280;29213;50.770;7.298;2023-04-07T01:10:50;100675.59;;;7.31;63.82
43621;BME280;29213;50.770;7.298;2023-04-07T01:15:54;100593.22;;;6.85;63.84
43621;BME280;29213;50.770;7.298;2023-04-07T01:18:30;100565.47;;;6.69;64.01
43621;BME280;29213;50.770;7.298;2023-04-07T01:21:01;100672.09;;;7.30;63.91
43621;BME280;29213;50.770;7.298;2023-04-07T01:26:28;100659.69;;;7.31;63.70
43621;BME280;29213;50.770;7.298;2023-04-07T01:31:57;100658.28;;;7.27;64.29
43621;BME280;29213;50.770;7.298;2023-04-07T01:34:25;100630.84;;;7.08;64.31
43621;BME280;29213;50.770;7.298;2023-04-07T01:36:53;100584.59;;;6.82;63.99
43621;BME280;29213;50.770;7.298;2023-04-07T01:39:19;100359.63;;;5.44;63.93
43621;BME280;29213;50.770;7.298;2023-04-07T01:41:45;100651.22;;;7.17;64.22
43621;BME280;29213;50.770;7.298;2023-04-07T01:44:11;100398.16;;;5.57;64.30
43621;BME280;29213;50.770;7.298;2023-04-07T01:46:38;100328.38;;;5.08;63.89
43621;BME280;29213;50.770;7.298;2023-04-07T01:49:04;100589.59;;;6.76;64.27
43621;BME280;29213;50.770;7.298;2023-04-07T01:51:29;100622.22;;;7.06;64.42
43621;BME280;29213;50.770;7.298;2023-04-07T01:53:58;100445.53;;;5.89;64.33
43621;BME280;29213;50.770;7.298;2023-04-07T01:56:25;100382.88;;;5.60;64.24
43621;BME280;29213;50.770;7.298;2023-04-07T01:58:50;100346.09;;;5.38;64.46
43621;BME280;29213;50.770;7.298;2023-04-07T02:01:15;100642.84;;;7.22;64.30
43621;BME280;29213;50.770;7.298;2023-04-07T02:04:43;100611.31;;;7.09;64.15
43621;BME280;29213;50.770;7.298;2023-04-07T02:06:55;100562.31;;;6.75;64.56
43621;BME280;29213;50.770;7.298;2023-04-07T02:09:24;100596.00;;;7.03;64.25
43621;BME280;29213;50.770;7.298;2023-04-07T02:11:53;100610.22;;;7.02;64.51
43621;BME280;29213;50.770;7.298;2023-04-07T02:14:20;100553.09;;;6.69;64.79
43621;BME280;29213;50.770;7.298;2023-04-07T02:16:47;100367.84;;;5.51;64.73
43621;BME280;29213;50.770;7.298;2023-04-07T02:19:13;100579.97;;;6.85;64.65
43621;BME280;29213;50.770;7.298;2023-04-07T02:21:39;100559.78;;;6.74;64.95
43621;BME280;29213;50.770;7.298;2023-04-07T02:24:05;100545.00;;;6.51;64.87
43621;BME280;29213;50.770;7.298;2023-04-07T02:26:33;100653.41;;;7.32;65.07
43621;BME280;29213;50.770;7.298;2023-04-07T02:28:59;100586.41;;;6.92;64.65
43621;BME280;29213;50.770;7.298;2023-04-07T02:31:24;100526.22;;;6.54;64.83
43621;BME280;29213;50.770;7.298;2023-04-07T02:33:50;100584.44;;;6.84;64.82
43621;BME280;29213;50.770;7.298;2023-04-07T02:36:15;100593.63;;;6.90;65.08
43621;BME280;29213;50.770;7.298;2023-04-07T02:38:41;100600.31;;;6.94;65.19
43621;BME280;29213;50.770;7.298;2023-04-07T02:41:06;100596.44;;;6.98;65.07
43621;BME280;29213;50.770;7.298;2023-04-07T02:43:31;100634.88;;;7.22;64.94
43621;BME280;29213;50.770;7.298;2023-04-07T02:45:57;100596.13;;;7.01;64.92
43621;BME280;29213;50.770;7.298;2023-04-07T02:48:22;100618.84;;;7.14;65.10
43621;BME280;29213;50.770;7.298;2023-04-07T02:50:48;100599.75;;;7.00;64.79
43621;BME280;29213;50.770;7.298;2023-04-07T02:53:13;100519.25;;;6.53;64.81
43621;BME280;29213;50.770;7.298;2023-04-07T02:55:38;100512.56;;;6.49;65.01
43621;BME280;29213;50.770;7.298;2023-04-07T02:58:04;100622.47;;;7.13;65.24
43621;BME280;29213;50.770;7.298;2023-04-07T03:00:29;100310.34;;;5.23;64.92
43621;BME280;29213;50.770;7.298;2023-04-07T03:02:55;100616.06;;;7.15;65.13
43621;BME280;29213;50.770;7.298;2023-04-07T03:05:20;100659.00;;;7.39;65.01
43621;BME280;29213;50.770;7.298;2023-04-07T03:07:46;100528.28;;;6.61;65.12
43621;BME280;29213;50.770;7.298;2023-04-07T03:10:11;100552.41;;;6.67;65.17
43621;BME280;29213;50.770;7.298;2023-04-07T03:12:36;100585.44;;;6.93;65.21
43621;BME280;29213;50.770;7.298;2023-04-07T03:15:02;100507.41;;;6.48;65.27
43621;BME280;29213;50.770;7.298;2023-04-07T03:17:28;100556.84;;;6.77;65.36
43621;BME280;29213;50.770;7.298;2023-04-07T03:19:53;100655.22;;;7.41;65.43
43621;BME280;29213;50.770;7.298;2023-04-07T03:22:18;100487.16;;;6.27;65.41
43621;BME280;29213;50.770;7.298;2023-04-07T03:24:44;100631.53;;;7.30;65.98
43621;BME280;29213;50.770;7.298;2023-04-07T03:27:09;100587.78;;;6.96;65.79
43621;BME280;29213;50.770;7.298;2023-04-07T03:29:35;100509.22;;;6.47;65.67
43621;BME280;29213;50.770;7.298;2023-04-07T03:32:00;100477.97;;;6.21;65.45
43621;BME280;29213;50.770;7.298;2023-04-07T03:34:26;100578.59;;;6.90;65.32
43621;BME280;29213;50.770;7.298;2023-04-07T03:36:51;100627.22;;;7.19;65.37
43621;BME280;29213;50.770;7.298;2023-04-07T03:39:16;100623.75;;;7.18;65.43
43621;BME280;29213;50.770;7.298;2023-04-07T03:41:42;100628.06;;;7.19;65.80
43621;BME280;29213;50.770;7.298;2023-04-07T03:44:07;100622.34;;;7.14;65.47
43621;BME280;29213;50.770;7.298;2023-04-07T03:46:33;100601.31;;;7.03;65.89
43621;BME280;29213;50.770;7.298;2023-04-07T03:48:58;100578.47;;;6.92;65.69
43621;BME280;29213;50.770;7.298;2023-04-07T03:51:24;100587.22;;;7.02;65.62
43621;BME280;29213;50.770;7.298;2023-04-07T03:53:49;100600.31;;;7.04;65.86
43621;BME280;29213;50.770;7.298;2023-04-07T03:56:15;100593.50;;;7.01;65.87
43621;BME280;29213;50.770;7.298;2023-04-07T03:58:41;100619.56;;;7.16;65.75
43621;BME280;29213;50.770;7.298;2023-04-07T04:01:07;100664.28;;;7.39;65.68
43621;BME280;29213;50.770;7.298;2023-04-07T04:03:32;100609.66;;;7.08;66.04
43621;BME280;29213;50.770;7.298;2023-04-07T04:05:58;100643.94;;;7.29;65.63
43621;BME280;29213;50.770;7.298;2023-04-07T04:08:23;100560.75;;;6.82;65.87
43621;BME280;29213;50.770;7.298;2023-04-07T04:10:49;100616.91;;;7.06;66.24
43621;BME280;29213;50.770;7.298;2023-04-07T04:13:14;100516.44;;;6.45;66.51
43621;BME280;29213;50.770;7.298;2023-04-07T04:15:40;100409.03;;;5.73;66.87
43621;BME280;29213;50.770;7.298;2023-04-07T04:18:05;100568.56;;;6.84;66.30
43621;BME280;29213;50.770;7.298;2023-04-07T04:20:31;100522.28;;;6.49;66.77
43621;BME280;29213;50.770;7.298;2023-04-07T04:22:56;100548.66;;;6.70;66.47
43621;BME280;29213;50.770;7.298;2023-04-07T04:25:21;100615.22;;;7.05;66.96
43621;BME280;29213;50.770;7.298;2023-04-07T04:27:47;100575.38;;;6.77;67.11
43621;BME280;29213;50.770;7.298;2023-04-07T04:30:12;100522.00;;;6.42;67.16
43621;BME280;29213;50.770;7.298;2023-04-07T04:32:38;100660.13;;;7.26;67.53
43621;BME280;29213;50.770;7.298;2023-04-07T04:35:04;100678.78;;;7.34;67.37
43621;BME280;29213;50.770;7.298;2023-04-07T04:37:29;100661.38;;;7.12;68.27
43621;BME280;29213;50.770;7.298;2023-04-07T04:39:56;100655.25;;;7.02;68.67
43621;BME280;29213;50.770;7.298;2023-04-07T04:42:21;100538.69;;;6.33;68.44
43621;BME280;29213;50.770;7.298;2023-04-07T04:44:47;100652.03;;;6.98;68.62
43621;BME280;29213;50.770;7.298;2023-04-07T04:47:12;100606.44;;;6.65;68.53
43621;BME280;29213;50.770;7.298;2023-04-07T04:49:38;100654.81;;;6.96;68.71
43621;BME280;29213;50.770;7.298;2023-04-07T04:52:03;100655.94;;;6.94;68.95
43621;BME280;29213;50.770;7.298;2023-04-07T04:54:29;100689.25;;;7.06;69.44
43621;BME280;29213;50.770;7.298;2023-04-07T04:56:54;100605.88;;;6.61;68.80
43621;BME280;29213;50.770;7.298;2023-04-07T04:59:22;100478.84;;;5.71;69.82
43621;BME280;29213;50.770;7.298;2023-04-07T05:01:47;100637.66;;;6.71;69.23
43621;BME280;29213;50.770;7.298;2023-04-07T05:04:13;100583.66;;;6.33;68.98
43621;BME280;29213;50.770;7.298;2023-04-07T05:06:38;100673.31;;;6.77;69.61
43621;BME280;29213;50.770;7.298;2023-04-07T05:09:03;100650.03;;;6.61;69.44
43621;BME280;29213;50.770;7.298;2023-04-07T05:11:29;100643.88;;;6.50;69.80
43621;BME280;29213;50.770;7.298;2023-04-07T05:13:54;100627.56;;;6.45;69.76
43621;BME280;29213;50.770;7.298;2023-04-07T05:16:20;100651.41;;;6.55;69.83
43621;BME280;29213;50.770;7.298;2023-04-07T05:18:46;100650.16;;;6.49;70.15
43621;BME280;29213;50.770;7.298;2023-04-07T05:21:11;100644.28;;;6.46;69.51
43621;BME280;29213;50.770;7.298;2023-04-07T05:23:36;100598.94;;;6.19;70.47
43621;BME280;29213;50.770;7.298;2023-04-07T05:26:02;100330.09;;;4.36;69.67
43621;BME280;29213;50.770;7.298;2023-04-07T05:28:27;100249.03;;;3.85;69.92
43621;BME280;29213;50.770;7.298;2023-04-07T05:30:53;100623.88;;;6.26;70.12
43621;BME280;29213;50.770;7.298;2023-04-07T05:33:19;100715.72;;;6.96;69.76
43621;BME280;29213;50.770;7.298;2023-04-07T05:35:45;100588.63;;;6.26;69.35
43621;BME280;29213;50.770;7.298;2023-04-07T05:38:11;100636.63;;;6.52;69.78
43621;BME280;29213;50.770;7.298;2023-04-07T05:40:36;100731.50;;;7.08;69.38
43621;BME280;29213;50.770;7.298;2023-04-07T05:43:02;100662.63;;;6.98;69.01
43621;BME280;29213;50.770;7.298;2023-04-07T05:45:27;100608.25;;;7.23;66.89
43621;BME280;29213;50.770;7.298;2023-04-07T05:47:53;100650.44;;;7.55;66.35
43621;BME280;29213;50.770;7.298;2023-04-07T05:50:18;100724.78;;;7.83;66.50
43621;BME280;29213;50.770;7.298;2023-04-07T05:52:43;100674.19;;;7.36;66.82
43621;BME280;29213;50.770;7.298;2023-04-07T05:55:09;100651.22;;;7.17;66.84
43621;BME280;29213;50.770;7.298;2023-04-07T05:57:35;100669.75;;;7.27;66.84
43621;BME280;29213;50.770;7.298;2023-04-07T06:00:00;100691.50;;;7.21;67.08
43621;BME280;29213;50.770;7.298;2023-04-07T06:02:26;100468.56;;;5.78;67.34
43621;BME280;29213;50.770;7.298;2023-04-07T06:04:51;100742.13;;;7.38;67.54
43621;BME280;29213;50.770;7.298;2023-04-07T06:07:16;100648.13;;;6.82;67.71
43621;BME280;29213;50.770;7.298;2023-04-07T06:09:42;100728.59;;;7.21;67.48
43621;BME280;29213;50.770;7.298;2023-04-07T06:12:08;100747.00;;;7.32;67.51
43621;BME280;29213;50.770;7.298;2023-04-07T06:14:35;100614.16;;;6.37;68.01
43621;BME280;29213;50.770;7.298;2023-04-07T06:17:00;100636.06;;;6.49;68.23
43621;BME280;29213;50.770;7.298;2023-04-07T06:19:25;100412.47;;;5.13;67.75
43621;BME280;29213;50.770;7.298;2023-04-07T06:21:54;100467.91;;;5.44;67.88
43621;BME280;29213;50.770;7.298;2023-04-07T06:24:19;100676.94;;;6.76;67.65
43621;BME280;29213;50.770;7.298;2023-04-07T06:26:47;100737.47;;;7.10;67.88
43621;BME280;29213;50.770;7.298;2023-04-07T06:29:13;100699.41;;;6.91;67.37
43621;BME280;29213;50.770;7.298;2023-04-07T06:31:38;100627.69;;;6.43;67.55
43621;BME280;29213;50.770;7.298;2023-04-07T06:34:04;100701.38;;;6.89;67.30
43621;BME280;29213;50.770;7.298;2023-04-07T06:36:29;100724.09;;;7.02;67.35
43621;BME280;29213;50.770;7.298;2023-04-07T06:38:55;100686.22;;;6.60;67.70
43621;BME280;29213;50.770;7.298;2023-04-07T06:41:20;100712.22;;;6.86;67.70
43621;BME280;29213;50.770;7.298;2023-04-07T06:43:47;100695.06;;;6.80;67.58
43621;BME280;29213;50.770;7.298;2023-04-07T06:46:13;100686.28;;;6.70;67.18
43621;BME280;29213;50.770;7.298;2023-04-07T06:48:38;100708.19;;;6.92;67.33
43621;BME280;29213;50.770;7.298;2023-04-07T06:51:04;100740.97;;;7.11;67.12
43621;BME280;29213;50.770;7.298;2023-04-07T06:53:30;100723.38;;;6.90;67.67
43621;BME280;29213;50.770;7.298;2023-04-07T06:56:09;100763.53;;;7.05;67.65
43621;BME280;29213;50.770;7.298;2023-04-07T06:58:36;100748.03;;;6.90;68.20
43621;BME280;29213;50.770;7.298;2023-04-07T07:01:02;100647.69;;;6.36;67.65
43621;BME280;29213;50.770;7.298;2023-04-07T07:03:28;100630.81;;;6.18;68.04
43621;BME280;29213;50.770;7.298;2023-04-07T07:05:54;100791.31;;;7.20;67.92
43621;BME280;29213;50.770;7.298;2023-04-07T07:08:23;100767.34;;;7.12;67.80
43621;BME280;29213;50.770;7.298;2023-04-07T07:10:49;100687.50;;;6.66;67.79
43621;BME280;29213;50.770;7.298;2023-04-07T07:13:14;100634.16;;;6.29;67.56
43621;BME280;29213;50.770;7.298;2023-04-07T07:15:40;100791.31;;;7.30;67.46
43621;BME280;29213;50.770;7.298;2023-04-07T07:18:05;100748.44;;;6.86;67.67
43621;BME280;29213;50.770;7.298;2023-04-07T07:20:31;100739.38;;;6.88;67.48
43621;BME280;29213;50.770;7.298;2023-04-07T07:22:56;100777.88;;;7.02;67.52
43621;BME280;29213;50.770;7.298;2023-04-07T07:25:22;100551.97;;;5.60;67.22
43621;BME280;29213;50.770;7.298;2023-04-07T07:27:51;100748.03;;;6.90;67.81
43621;BME280;29213;50.770;7.298;2023-04-07T07:30:19;100712.75;;;6.80;67.68
43621;BME280;29213;50.770;7.298;2023-04-07T07:32:45;100770.94;;;7.11;67.92
43621;BME280;29213;50.770;7.298;2023-04-07T07:35:10;100381.63;;;4.61;67.96
43621;BME280;29213;50.770;7.298;2023-04-07T07:37:35;100757.66;;;6.91;67.79
43621;BME280;29213;50.770;7.298;2023-04-07T07:40:01;100596.84;;;5.82;67.99
43621;BME280;29213;50.770;7.298;2023-04-07T07:42:26;100366.34;;;4.55;67.19
43621;BME280;29213;50.770;7.298;2023-04-07T07:44:52;100722.69;;;6.88;67.60
43621;BME280;29213;50.770;7.298;2023-04-07T07:47:17;100779.47;;;7.25;67.45
43621;BME280;29213;50.770;7.298;2023-04-07T07:49:42;100787.00;;;7.29;67.20
43621;BME280;29213;50.770;7.298;2023-04-07T07:52:08;100802.63;;;7.32;67.29
43621;BME280;29213;50.770;7.298;2023-04-07T07:54:33;100616.91;;;6.25;66.53
43621;BME280;29213;50.770;7.298;2023-04-07T07:56:59;100604.28;;;5.98;66.63
43621;BME280;29213;50.770;7.298;2023-04-07T07:59:27;100776.66;;;7.06;67.28
43621;BME280;29213;50.770;7.298;2023-04-07T08:01:53;100794.50;;;7.14;67.06
43621;BME280;29213;50.770;7.298;2023-04-07T08:04:18;100747.19;;;6.90;67.45
43621;BME280;29213;50.770;7.298;2023-04-07T08:06:43;100791.78;;;6.94;67.49
43621;BME280;29213;50.770;7.298;2023-04-07T08:09:09;100798.94;;;7.04;67.24
43621;BME280;29213;50.770;7.298;2023-04-07T08:11:35;100818.78;;;7.19;67.12
43621;BME280;29213;50.770;7.298;2023-04-07T08:14:00;100787.53;;;7.03;67.10
43621;BME280;29213;50.770;7.298;2023-04-07T08:16:26;100560.84;;;5.59;66.79
43621;BME280;29213;50.770;7.298;2023-04-07T08:18:51;100750.50;;;6.72;67.18
43621;BME280;29213;50.770;7.298;2023-04-07T08:21:17;100853.34;;;7.18;67.51
43621;BME280;29213;50.770;7.298;2023-04-07T08:23:42;100740.09;;;6.49;68.23
43621;BME280;29213;50.770;7.298;2023-04-07T08:26:07;100870.25;;;7.36;67.63
43621;BME280;29213;50.770;7.298;2023-04-07T08:28:33;100863.16;;;7.47;66.91
43621;BME280;29213;50.770;7.298;2023-04-07T08:30:58;100801.00;;;6.90;67.40
43621;BME280;29213;50.770;7.298;2023-04-07T08:33:25;100606.41;;;5.73;67.22
43621;BME280;29213;50.770;7.298;2023-04-07T08:35:50;100546.72;;;5.39;67.04
43621;BME280;29213;50.770;7.298;2023-04-07T08:38:18;100769.34;;;6.79;66.99
43621;BME280;29213;50.770;7.298;2023-04-07T08:40:44;100675.31;;;6.12;67.07
43621;BME280;29213;50.770;7.298;2023-04-07T08:43:10;100849.88;;;7.27;67.79
43621;BME280;29213;50.770;7.298;2023-04-07T08:45:38;100624.69;;;5.86;67.76
43621;BME280;29213;50.770;7.298;2023-04-07T08:48:15;100566.97;;;5.60;67.37
43621;BME280;29213;50.770;7.298;2023-04-07T08:50:44;100876.72;;;7.54;67.48
43621;BME280;29213;50.770;7.298;2023-04-07T08:53:12;100773.84;;;6.98;67.12
43621;BME280;29213;50.770;7.298;2023-04-07T08:55:40;100839.59;;;7.44;66.97
43621;BME280;29213;50.770;7.298;2023-04-07T08:58:05;100798.44;;;7.20;67.25
43621;BME280;29213;50.770;7.298;2023-04-07T09:00:38;100881.47;;;7.70;67.38
43621;BME280;29213;50.770;7.298;2023-04-07T09:03:11;100771.63;;;7.03;67.02
43621;BME280;29213;50.770;7.298;2023-04-07T09:12:16;100697.44;;;6.42;66.24
43621;BME280;29213;50.770;7.298;2023-04-07T09:14:44;100845.16;;;7.41;66.34
43621;BME280;29213;50.770;7.298;2023-04-07T09:17:10;100757.78;;;6.90;66.12
43621;BME280;29213;50.770;7.298;2023-04-07T09:19:35;100873.81;;;7.67;65.62
43621;BME280;29213;50.770;7.298;2023-04-07T09:22:01;100848.56;;;7.62;66.13
43621;BME280;29213;50.770;7.298;2023-04-07T09:28:03;100897.88;;;8.05;65.87
43621;BME280;29213;50.770;7.298;2023-04-07T09:30:30;100895.09;;;8.06;65.79
43621;BME280;29213;50.770;7.298;2023-04-07T09:32:57;100849.53;;;7.71;65.10
43621;BME280;29213;50.770;7.298;2023-04-07T09:35:22;100841.72;;;7.60;65.83
43621;BME280;29213;50.770;7.298;2023-04-07T09:59:43;100880.25;;;7.74;65.28
43621;BME280;29213;50.770;7.298;2023-04-07T10:02:11;100896.72;;;7.97;65.94
43621;BME280;29213;50.770;7.298;2023-04-07T10:04:37;100903.00;;;7.86;66.20
43621;BME280;29213;50.770;7.298;2023-04-07T10:07:04;100839.91;;;7.60;66.17
43621;BME280;29213;50.770;7.298;2023-04-07T10:09:30;100894.22;;;7.96;66.37
43621;BME280;29213;50.770;7.298;2023-04-07T10:11:57;100799.69;;;7.26;66.47
43621;BME280;29213;50.770;7.298;2023-04-07T10:14:31;100864.94;;;8.27;68.64
43621;BME280;29213;50.770;7.298;2023-04-07T10:17:00;100848.78;;;8.58;65.04
43621;BME280;29213;50.770;7.298;2023-04-07T10:19:31;100889.16;;;8.72;64.59
43621;BME280;29213;50.770;7.298;2023-04-07T10:22:01;100891.41;;;8.47;64.32
43621;BME280;29213;50.770;7.298;2023-04-07T10:27:11;100894.66;;;8.40;64.67
43621;BME280;29213;50.770;7.298;2023-04-07T10:29:41;100901.22;;;8.36;64.30
43621;BME280;29213;50.770;7.298;2023-04-07T10:32:06;100889.22;;;8.32;64.47
43621;BME280;29213;50.770;7.298;2023-04-07T10:42:43;100934.19;;;8.43;64.54
43621;BME280;29213;50.770;7.298;2023-04-07T10:45:09;100638.31;;;6.53;64.45
43621;BME280;29213;50.770;7.298;2023-04-07T10:50:27;100825.66;;;7.81;63.59
43621;BME280;29213;50.770;7.298;2023-04-07T10:53:13;100757.16;;;7.27;64.22
43621;BME280;29213;50.770;7.298;2023-04-07T10:55:44;100637.34;;;6.64;64.33
43621;BME280;29213;50.770;7.298;2023-04-07T10:58:17;100936.81;;;8.63;64.50
43621;BME280;29213;50.770;7.298;2023-04-07T11:03:30;100592.47;;;6.43;64.45
43621;BME280;29213;50.770;7.298;2023-04-07T11:06:07;100864.59;;;8.40;65.47
43621;BME280;29213;50.770;7.298;2023-04-07T11:08:34;100907.59;;;9.11;65.06
43621;BME280;29213;50.770;7.298;2023-04-07T11:11:00;100857.44;;;8.98;62.96
43621;BME280;29213;50.770;7.298;2023-04-07T11:13:26;100918.44;;;9.28;62.45
43621;BME280;29213;50.770;7.298;2023-04-07T11:15:52;100942.34;;;9.28;62.53
43621;BME280;29213;50.770;7.298;2023-04-07T11:18:19;100937.06;;;9.18;62.53
43621;BME280;29213;50.770;7.298;2023-04-07T11:20:47;100873.22;;;8.72;62.95
43621;BME280;29213;50.770;7.298;2023-04-07T11:23:14;100851.75;;;8.55;62.73
43621;BME280;29213;50.770;7.298;2023-04-07T11:25:42;100925.44;;;8.91;62.39
43621;BME280;29213;50.770;7.298;2023-04-07T11:28:09;100958.09;;;9.01;62.69
43621;BME280;29213;50.770;7.298;2023-04-07T11:30:36;100953.66;;;8.92;63.12
43621;BME280;29213;50.770;7.298;2023-04-07T11:33:02;100879.41;;;8.52;63.25
43621;BME280;29213;50.770;7.298;2023-04-07T11:35:27;100912.31;;;8.69;63.15
43621;BME280;29213;50.770;7.298;2023-04-07T11:37:57;100933.72;;;8.78;63.26
43621;BME280;29213;50.770;7.298;2023-04-07T11:40:35;100967.38;;;8.77;64.31
43621;BME280;29213;50.770;7.298;2023-04-07T11:43:02;100905.69;;;8.46;63.69
43621;BME280;29213;50.770;7.298;2023-04-07T11:45:27;100938.63;;;8.53;63.79
43621;BME280;29213;50.770;7.298;2023-04-07T11:47:53;100950.63;;;8.67;64.32
43621;BME280;29213;50.770;7.298;2023-04-07T11:50:40;100941.16;;;8.54;64.06
43621;BME280;29213;50.770;7.298;2023-04-07T11:53:07;100903.59;;;8.29;64.11
43621;BME280;29213;50.770;7.298;2023-04-07T11:55:33;100942.16;;;8.43;64.67
43621;BME280;29213;50.770;7.298;2023-04-07T11:58:05;100967.16;;;8.51;64.52
43621;BME280;29213;50.770;7.298;2023-04-07T12:00:34;100875.53;;;7.87;64.79
43621;BME280;29213;50.770;7.298;2023-04-07T12:03:08;100981.66;;;8.56;64.59
43621;BME280;29213;50.770;7.298;2023-04-07T12:05:43;100964.06;;;8.46;64.64
43621;BME280;29213;50.770;7.298;2023-04-07T12:08:08;100958.34;;;8.40;65.00
43621;BME280;29213;50.770;7.298;2023-04-07T12:10:34;100963.22;;;8.45;64.91
43621;BME280;29213;50.770;7.298;2023-04-07T12:12:59;100978.59;;;8.61;64.76
43621;BME280;29213;50.770;7.298;2023-04-07T12:15:26;100984.31;;;8.56;64.99
43621;BME280;29213;50.770;7.298;2023-04-07T12:17:52;100967.28;;;8.39;65.52
43621;BME280;29213;50.770;7.298;2023-04-07T12:20:19;100958.34;;;8.40;65.74
43621;BME280;29213;50.770;7.298;2023-04-07T12:22:45;100944.81;;;8.43;64.92
43621;BME280;29213;50.770;7.298;2023-04-07T12:25:10;100956.41;;;8.52;64.40
43621;BME280;29213;50.770;7.298;2023-04-07T12:27:36;100945.63;;;8.44;64.14
43621;BME280;29213;50.770;7.298;2023-04-07T12:30:01;100888.22;;;8.03;64.47
43621;BME280;29213;50.770;7.298;2023-04-07T12:32:28;100933.22;;;8.35;64.58
43621;BME280;29213;50.770;7.298;2023-04-07T12:34:53;100967.44;;;8.58;63.91
43621;BME280;29213;50.770;7.298;2023-04-07T12:37:19;100977.31;;;8.55;64.04
43621;BME280;29213;50.770;7.298;2023-04-07T12:39:44;100928.19;;;8.22;64.03
43621;BME280;29213;50.770;7.298;2023-04-07T12:42:09;100979.16;;;8.45;64.13
43621;BME280;29213;50.770;7.298;2023-04-07T12:44:36;100968.97;;;8.40;64.15
43621;BME280;29213;50.770;7.298;2023-04-07T12:47:02;100994.94;;;8.56;64.42
43621;BME280;29213;50.770;7.298;2023-04-07T12:49:28;100973.16;;;8.43;64.12
43621;BME280;29213;50.770;7.298;2023-04-07T12:51:53;100967.97;;;8.41;64.17
43621;BME280;29213;50.770;7.298;2023-04-07T12:54:19;101016.19;;;8.66;64.47
43621;BME280;29213;50.770;7.298;2023-04-07T12:56:44;100999.97;;;8.69;64.35
43621;BME280;29213;50.770;7.298;2023-04-07T12:59:10;100880.25;;;8.03;63.99
43621;BME280;29213;50.770;7.298;2023-04-07T13:01:35;100941.19;;;8.35;64.06
43621;BME280;29213;50.770;7.298;2023-04-07T13:04:01;100854.56;;;7.84;63.59
43621;BME280;29213;50.770;7.298;2023-04-07T13:06:27;100982.22;;;8.50;63.86
43621;BME280;29213;50.770;7.298;2023-04-07T13:08:52;100984.19;;;8.58;64.03
43621;BME280;29213;50.770;7.298;2023-04-07T13:11:18;100979.59;;;8.60;64.27
43621;BME280;29213;50.770;7.298;2023-04-07T13:13:43;100940.34;;;8.34;64.37
43621;BME280;29213;50.770;7.298;2023-04-07T13:16:09;100985.84;;;8.59;64.32
43621;BME280;29213;50.770;7.298;2023-04-07T13:18:34;100980.53;;;8.59;64.98
43621;BME280;29213;50.770;7.298;2023-04-07T13:21:01;100926.78;;;8.27;64.13
43621;BME280;29213;50.770;7.298;2023-04-07T13:23:26;100979.88;;;8.47;64.32
43621;BME280;29213;50.770;7.298;2023-04-07T13:25:52;100954.28;;;8.36;64.45
43621;BME280;29213;50.770;7.298;2023-04-07T13:28:17;101005.84;;;8.83;65.20
43621;BME280;29213;50.770;7.298;2023-04-07T13:30:45;100979.00;;;8.66;64.84
43621;BME280;29213;50.770;7.298;2023-04-07T13:33:11;101020.78;;;8.84;64.40
43621;BME280;29213;50.770;7.298;2023-04-07T13:35:36;100953.47;;;8.36;64.57
43621;BME280;29213;50.770;7.298;2023-04-07T13:38:02;100995.78;;;8.57;64.82
43621;BME280;29213;50.770;7.298;2023-04-07T13:40:28;100991.44;;;8.66;64.50
43621;BME280;29213;50.770;7.298;2023-04-07T13:42:54;101008.19;;;8.86;64.44
43621;BME280;29213;50.770;7.298;2023-04-07T13:45:19;101015.59;;;8.92;64.39
43621;BME280;29213;50.770;7.298;2023-04-07T13:47:45;101016.81;;;9.08;64.05
43621;BME280;29213;50.770;7.298;2023-04-07T13:50:11;100843.56;;;7.99;64.18
43621;BME280;29213;50.770;7.298;2023-04-07T13:52:37;100805.88;;;7.75;63.62
43621;BME280;29213;50.770;7.298;2023-04-07T13:55:03;100732.47;;;7.27;63.37